createdAt,value
2023-02-11T00:01:08.006Z,85.60
2023-02-11T00:03:35.215Z,85.80
2023-02-11T00:06:05.236Z,86.00
2023-02-11T00:08:31.956Z,86.10
2023-02-11T00:10:58.682Z,86.30
2023-02-11T00:13:25.466Z,86.40
2023-02-11T00:15:52.835Z,86.40
2023-02-11T00:18:19.677Z,86.60
2023-02-11T00:20:46.566Z,86.80
2023-02-11T00:23:13.819Z,86.90
2023-02-11T00:25:48.454Z,87.10
2023-02-11T00:28:15.427Z,87.10
2023-02-11T00:30:42.323Z,87.30
2023-02-11T00:33:09.099Z,87.50
2023-02-11T00:35:38.632Z,87.60
2023-02-11T00:38:05.429Z,87.80
2023-02-11T00:40:32.183Z,87.90
2023-02-11T00:42:58.879Z,88.10
2023-02-11T00:45:25.699Z,88.20
2023-02-11T00:47:52.751Z,88.40
2023-02-11T00:50:19.557Z,88.50
2023-02-11T00:52:46.298Z,88.80
2023-02-11T00:55:12.999Z,88.80
2023-02-11T00:57:39.751Z,89.00
2023-02-11T01:00:07.554Z,89.20
2023-02-11T01:02:34.346Z,89.40
2023-02-11T01:05:01.191Z,89.30
2023-02-11T01:07:28.882Z,89.40
2023-02-11T01:09:55.773Z,89.70
2023-02-11T01:12:22.849Z,89.80
2023-02-11T01:14:49.700Z,90.10
2023-02-11T01:17:16.527Z,90.50
2023-02-11T01:19:43.507Z,91.10
2023-02-11T01:22:10.306Z,91.50
2023-02-11T01:24:37.007Z,91.60
2023-02-11T01:27:04.065Z,91.90
2023-02-11T01:29:30.822Z,92.00
2023-02-11T01:31:57.852Z,92.10
2023-02-11T01:34:24.594Z,92.20
2023-02-11T01:36:51.411Z,92.10
2023-02-11T01:39:18.183Z,92.30
2023-02-11T01:41:45.041Z,92.40
2023-02-11T01:44:26.956Z,92.70
2023-02-11T01:46:54.496Z,92.70
2023-02-11T01:49:44.348Z,92.80
2023-02-11T01:52:22.191Z,92.90
2023-02-11T01:55:29.202Z,92.90
2023-02-11T01:58:00.236Z,93.20
2023-02-11T02:00:33.809Z,93.40
2023-02-11T02:03:20.017Z,93.20
2023-02-11T02:06:13.042Z,93.40
2023-02-11T02:08:50.174Z,93.50
2023-02-11T02:11:17.025Z,93.50
2023-02-11T02:13:44.540Z,93.70
2023-02-11T02:16:17.631Z,93.60
2023-02-11T02:19:07.191Z,93.70
2023-02-11T02:22:25.105Z,93.70
2023-02-11T02:25:26.431Z,93.70
2023-02-11T02:28:31.154Z,93.70
2023-02-11T02:31:09.867Z,93.80
2023-02-11T02:33:58.039Z,93.60
2023-02-11T02:36:43.705Z,93.90
2023-02-11T02:39:24.674Z,93.90
2023-02-11T02:41:53.390Z,93.70
2023-02-11T02:44:20.626Z,93.90
2023-02-11T02:46:47.596Z,94.00
2023-02-11T02:49:16.222Z,94.20
2023-02-11T02:52:03.933Z,94.10
2023-02-11T02:54:45.707Z,94.10
2023-02-11T02:57:25.883Z,94.20
2023-02-11T03:00:14.896Z,94.20
2023-02-11T03:03:03.397Z,94.20
2023-02-11T03:05:45.722Z,94.30
2023-02-11T03:08:19.648Z,94.60
2023-02-11T03:10:51.265Z,94.60
2023-02-11T03:13:22.368Z,94.70
2023-02-11T03:15:54.191Z,94.90
2023-02-11T03:18:26.302Z,95.10
2023-02-11T03:20:54.528Z,95.20
2023-02-11T03:23:35.383Z,95.70
2023-02-11T03:26:07.884Z,95.80
2023-02-11T03:29:16.518Z,96.20
2023-02-11T03:31:46.315Z,96.70
2023-02-11T03:34:19.638Z,97.60
2023-02-11T03:36:57.066Z,97.70
2023-02-11T03:39:29.386Z,98.00
2023-02-11T03:41:58.739Z,98.20
2023-02-11T03:44:29.880Z,98.60
2023-02-11T03:46:56.992Z,98.80
2023-02-11T03:49:27.644Z,99.20
2023-02-11T03:51:55.758Z,99.40
2023-02-11T03:54:29.328Z,99.50
2023-02-11T03:56:59.335Z,99.70
2023-02-11T03:59:26.252Z,99.70
2023-02-11T04:01:53.273Z,99.80
2023-02-11T04:04:20.098Z,99.80
2023-02-11T04:06:46.917Z,99.80
2023-02-11T04:09:13.688Z,99.80
2023-02-11T04:11:40.430Z,99.70
2023-02-11T04:14:07.216Z,99.60
2023-02-11T04:16:33.978Z,99.60
2023-02-11T04:19:01.593Z,99.50
2023-02-11T04:21:28.324Z,99.40
2023-02-11T04:23:55.078Z,99.50
2023-02-11T04:26:21.770Z,99.50
2023-02-11T04:28:48.599Z,99.50
2023-02-11T04:31:15.436Z,99.50
2023-02-11T04:33:42.164Z,99.30
2023-02-11T04:36:08.992Z,99.20
2023-02-11T04:38:35.766Z,99.50
2023-02-11T04:41:02.496Z,99.40
2023-02-11T04:43:29.265Z,99.20
2023-02-11T04:45:59.196Z,99.50
2023-02-11T04:48:26.683Z,99.50
2023-02-11T04:50:53.407Z,99.50
2023-02-11T04:53:20.559Z,99.40
2023-02-11T04:55:50.936Z,99.60
2023-02-11T04:58:19.300Z,99.70
2023-02-11T05:00:46.437Z,99.40
2023-02-11T05:03:13.691Z,99.90
2023-02-11T05:05:41.740Z,99.90
2023-02-11T05:08:10.136Z,100.00
2023-02-11T05:10:37.091Z,100.00
2023-02-11T05:13:04.478Z,100.00
2023-02-11T05:15:31.225Z,100.00
2023-02-11T05:17:58.021Z,100.00
2023-02-11T05:20:24.744Z,100.00
2023-02-11T05:22:51.670Z,100.00
2023-02-11T05:25:18.555Z,100.00
2023-02-11T05:27:45.292Z,100.00
2023-02-11T05:30:12.365Z,100.00
2023-02-11T05:32:39.135Z,100.00
2023-02-11T05:35:06.277Z,100.00
2023-02-11T05:37:33.121Z,100.00
2023-02-11T05:39:59.839Z,100.00
2023-02-11T05:42:26.587Z,100.00
2023-02-11T05:44:53.304Z,100.00
2023-02-11T05:47:20.047Z,100.00
2023-02-11T05:49:46.818Z,100.00
2023-02-11T05:52:13.531Z,100.00
2023-02-11T05:54:40.300Z,100.00
2023-02-11T05:57:06.995Z,99.90
2023-02-11T05:59:33.831Z,99.80
2023-02-11T06:02:00.607Z,99.80
2023-02-11T06:04:27.285Z,99.70
2023-02-11T06:06:53.991Z,99.80
2023-02-11T06:09:20.744Z,99.70
2023-02-11T06:11:47.427Z,99.60
2023-02-11T06:14:14.720Z,99.50
2023-02-11T06:16:41.451Z,99.40
2023-02-11T06:19:08.135Z,99.40
2023-02-11T06:21:43.437Z,99.30
2023-02-11T06:24:11.725Z,99.30
2023-02-11T06:26:38.525Z,99.10
2023-02-11T06:29:05.308Z,99.00
2023-02-11T06:31:32.168Z,98.90
2023-02-11T06:33:59.597Z,99.00
2023-02-11T06:36:26.709Z,99.00
2023-02-11T06:38:53.486Z,98.90
2023-02-11T06:41:20.715Z,98.90
2023-02-11T06:43:47.866Z,99.00
2023-02-11T06:46:15.130Z,98.80
2023-02-11T06:48:44.682Z,98.70
2023-02-11T06:51:13.585Z,99.00
2023-02-11T06:53:43.762Z,98.90
2023-02-11T06:56:13.674Z,99.10
2023-02-11T06:58:40.967Z,99.10
2023-02-11T07:01:10.210Z,98.80
2023-02-11T07:03:38.975Z,99.00
2023-02-11T07:06:07.877Z,99.00
2023-02-11T07:08:36.679Z,98.90
2023-02-11T07:11:28.260Z,98.90
2023-02-11T07:13:59.435Z,98.70
2023-02-11T07:16:26.566Z,98.70
2023-02-11T07:18:53.842Z,99.00
2023-02-11T07:21:22.191Z,99.10
2023-02-11T07:23:49.042Z,99.00
2023-02-11T07:26:23.032Z,98.90
2023-02-11T07:28:50.842Z,99.20
2023-02-11T07:31:26.543Z,99.40
2023-02-11T07:33:55.559Z,99.30
2023-02-11T07:36:22.939Z,99.50
2023-02-11T07:38:50.049Z,99.80
2023-02-11T07:41:20.465Z,99.80
2023-02-11T07:43:47.986Z,100.00
2023-02-11T07:46:21.131Z,100.00
2023-02-11T07:48:48.582Z,100.00
2023-02-11T07:51:18.183Z,100.00
2023-02-11T07:53:45.561Z,100.00
2023-02-11T07:56:13.891Z,100.00
2023-02-11T07:58:44.143Z,100.00
2023-02-11T08:01:14.289Z,100.00
2023-02-11T08:03:42.698Z,100.00
2023-02-11T08:06:15.036Z,99.80
2023-02-11T08:08:42.458Z,99.70
2023-02-11T08:11:17.878Z,99.40
2023-02-11T08:13:45.154Z,99.40
2023-02-11T08:16:26.428Z,99.20
2023-02-11T08:18:55.561Z,98.90
2023-02-11T08:21:22.347Z,98.70
2023-02-11T08:23:49.850Z,98.60
2023-02-11T08:26:22.238Z,98.30
2023-02-11T08:28:50.823Z,98.10
2023-02-11T08:31:23.989Z,97.80
2023-02-11T08:33:51.221Z,97.90
2023-02-11T08:36:23.202Z,97.90
2023-02-11T08:38:50.355Z,97.50
2023-02-11T08:41:17.506Z,97.30
2023-02-11T08:43:45.486Z,96.90
2023-02-11T08:46:17.207Z,96.50
2023-02-11T08:48:44.925Z,96.60
2023-02-11T08:51:31.475Z,96.50
2023-02-11T08:53:58.822Z,96.40
2023-02-11T08:56:26.348Z,96.30
2023-02-11T08:58:53.234Z,96.30
2023-02-11T09:01:23.618Z,95.90
2023-02-11T09:03:50.720Z,95.90
2023-02-11T09:06:18.622Z,95.80
2023-02-11T09:08:49.946Z,95.50
2023-02-11T09:11:18.413Z,95.10
2023-02-11T09:13:46.046Z,95.00
2023-02-11T09:16:25.105Z,94.70
2023-02-11T09:18:52.885Z,94.50
2023-02-11T09:21:20.281Z,94.60
2023-02-11T09:23:47.850Z,94.60
2023-02-11T09:26:21.216Z,94.70
2023-02-11T09:28:48.645Z,95.00
2023-02-11T09:31:18.483Z,95.00
2023-02-11T09:33:47.970Z,94.30
2023-02-11T09:36:26.654Z,94.60
2023-02-11T09:38:53.729Z,94.60
2023-02-11T09:41:23.484Z,94.80
2023-02-11T09:44:04.545Z,95.70
2023-02-11T09:46:34.925Z,95.10
2023-02-11T09:49:02.683Z,94.10
2023-02-11T09:51:57.014Z,93.80
2023-02-11T09:54:30.284Z,93.60
2023-02-11T09:56:57.125Z,93.40
2023-02-11T09:59:23.836Z,93.50
2023-02-11T10:01:57.067Z,94.00
2023-02-11T10:04:35.592Z,94.20
2023-02-11T10:07:36.463Z,92.70
2023-02-11T10:10:44.835Z,92.30
2023-02-11T10:13:32.866Z,91.30
2023-02-11T10:16:13.595Z,89.90
2023-02-11T10:19:13.902Z,90.10
2023-02-11T10:21:51.585Z,91.20
2023-02-11T10:24:18.851Z,90.50
2023-02-11T10:26:46.296Z,90.40
2023-02-11T10:29:35.507Z,90.20
2023-02-11T10:32:07.507Z,90.30
2023-02-11T10:34:37.679Z,91.10
2023-02-11T10:37:04.414Z,90.60
2023-02-11T10:39:31.839Z,91.50
2023-02-11T10:42:05.909Z,92.00
2023-02-11T10:44:38.948Z,92.10
2023-02-11T10:47:32.894Z,92.50
2023-02-11T10:50:03.551Z,92.30
2023-02-11T10:52:31.385Z,92.60
2023-02-11T10:54:59.494Z,93.30
2023-02-11T10:57:54.882Z,93.70
2023-02-11T11:00:38.882Z,93.60
2023-02-11T11:03:21.550Z,93.70
2023-02-11T11:05:59.756Z,93.90
2023-02-11T11:08:51.310Z,93.80
2023-02-11T11:11:23.351Z,94.40
2023-02-11T11:13:52.805Z,94.60
2023-02-11T11:16:25.524Z,94.50
2023-02-11T11:19:07.592Z,94.40
2023-02-11T11:21:44.708Z,94.40
2023-02-11T11:24:39.786Z,93.30
2023-02-11T11:27:06.913Z,92.70
2023-02-11T11:29:45.964Z,92.30
2023-02-11T11:32:29.768Z,92.00
2023-02-11T11:35:02.643Z,91.90
2023-02-11T11:37:35.402Z,91.80
2023-02-11T11:40:21.906Z,92.10
2023-02-11T11:43:15.049Z,92.70
2023-02-11T11:45:57.612Z,92.90
2023-02-11T11:48:31.512Z,93.50
2023-02-11T11:51:18.610Z,93.40
2023-02-11T11:54:08.622Z,93.30
2023-02-11T11:56:41.930Z,93.60
2023-02-11T11:59:16.408Z,93.40
2023-02-11T12:02:11.821Z,93.20
2023-02-11T12:04:38.593Z,93.10
2023-02-11T12:07:05.270Z,93.40
2023-02-11T12:10:10.620Z,93.30
2023-02-11T12:13:09.891Z,93.50
2023-02-11T12:15:59.343Z,94.30
2023-02-11T12:18:38.088Z,94.50
2023-02-11T12:21:16.910Z,93.90
2023-02-11T12:24:05.148Z,94.70
2023-02-11T12:26:53.272Z,94.80
2023-02-11T12:29:41.658Z,95.50
2023-02-11T12:32:33.363Z,95.10
2023-02-11T12:35:21.864Z,95.00
2023-02-11T12:38:08.319Z,94.50
2023-02-11T12:40:46.184Z,93.80
2023-02-11T12:43:36.835Z,94.00
2023-02-11T12:46:43.165Z,93.80
2023-02-11T12:49:45.688Z,93.70
2023-02-11T12:52:32.044Z,93.00
2023-02-11T12:55:03.472Z,93.70
2023-02-11T12:57:34.621Z,93.80
2023-02-11T13:00:19.336Z,93.30
2023-02-11T13:02:54.421Z,93.10
2023-02-11T13:05:53.322Z,93.50
2023-02-11T13:08:40.638Z,93.90
2023-02-11T13:11:14.875Z,93.70
2023-02-11T13:13:53.622Z,93.90
2023-02-11T13:16:38.307Z,94.00
2023-02-11T13:19:14.048Z,93.70
2023-02-11T13:21:46.946Z,93.80
2023-02-11T13:24:19.453Z,93.10
2023-02-11T13:26:52.169Z,93.10
2023-02-11T13:29:37.589Z,92.90
2023-02-11T13:32:10.271Z,91.90
2023-02-11T13:34:41.686Z,92.30
2023-02-11T13:37:46.266Z,92.70
2023-02-11T13:40:18.911Z,91.70
2023-02-11T13:42:57.715Z,91.20
2023-02-11T13:45:36.395Z,91.30
2023-02-11T13:48:06.877Z,90.40
2023-02-11T13:50:39.149Z,90.70
2023-02-11T13:53:08.773Z,90.10
2023-02-11T13:55:35.955Z,89.80
2023-02-11T13:58:05.552Z,90.20
2023-02-11T14:00:35.387Z,90.40
2023-02-11T14:03:29.553Z,90.30
2023-02-11T14:06:26.753Z,89.70
2023-02-11T14:09:09.053Z,89.90
2023-02-11T14:11:46.606Z,89.80
2023-02-11T14:14:25.438Z,89.80
2023-02-11T14:17:10.381Z,89.00
2023-02-11T14:19:37.215Z,89.00
2023-02-11T14:22:03.939Z,88.40
2023-02-11T14:24:33.518Z,87.90
2023-02-11T14:27:29.582Z,87.60
2023-02-11T14:29:59.003Z,87.80
2023-02-11T14:32:40.960Z,87.50
2023-02-11T14:35:07.738Z,87.20
2023-02-11T14:37:50.485Z,87.80
2023-02-11T14:40:33.025Z,87.40
2023-02-11T14:43:45.140Z,86.80
2023-02-11T14:46:16.476Z,87.50
2023-02-11T14:48:49.130Z,86.40
2023-02-11T14:51:20.601Z,86.20
2023-02-11T14:53:50.784Z,85.70
2023-02-11T14:56:31.081Z,85.40
2023-02-11T14:59:02.542Z,85.50
2023-02-11T15:01:35.165Z,85.80
2023-02-11T15:04:04.401Z,86.30
2023-02-11T15:06:34.390Z,86.50
2023-02-11T15:09:06.093Z,87.20
2023-02-11T15:11:38.686Z,86.80
2023-02-11T15:14:12.120Z,87.30
2023-02-11T15:16:46.804Z,87.70
2023-02-11T15:19:44.166Z,88.40
2023-02-11T15:22:19.953Z,88.70
2023-02-11T15:25:17.194Z,88.90
2023-02-11T15:27:49.148Z,89.20
2023-02-11T15:30:21.891Z,89.60
2023-02-11T15:32:58.641Z,89.80
2023-02-11T15:35:34.999Z,89.90
2023-02-11T15:38:01.874Z,89.90
2023-02-11T15:40:32.943Z,90.00
2023-02-11T15:43:10.588Z,90.10
2023-02-11T15:45:51.514Z,90.10
2023-02-11T15:48:26.891Z,90.10
2023-02-11T15:50:58.896Z,90.10
2023-02-11T15:53:28.005Z,90.10
2023-02-11T15:56:21.638Z,90.10
2023-02-11T15:58:51.590Z,90.20
2023-02-11T16:01:18.464Z,90.30
2023-02-11T16:03:50.545Z,90.20
2023-02-11T16:06:26.741Z,90.30
2023-02-11T16:09:05.654Z,90.40
2023-02-11T16:11:35.210Z,90.60
2023-02-11T16:14:04.594Z,90.60
2023-02-11T16:16:34.720Z,90.70
2023-02-11T16:19:05.203Z,91.10
2023-02-11T16:21:42.424Z,91.40
2023-02-11T16:24:24.570Z,91.50
2023-02-11T16:26:55.113Z,91.80
2023-02-11T16:29:27.327Z,91.90
2023-02-11T16:32:05.947Z,91.90
2023-02-11T16:34:32.785Z,91.90
2023-02-11T16:37:02.791Z,91.90
2023-02-11T16:39:29.580Z,91.90
2023-02-11T16:41:57.204Z,91.90
2023-02-11T16:44:24.453Z,92.00
2023-02-11T16:46:52.606Z,92.00
2023-02-11T16:49:26.123Z,92.10
2023-02-11T16:51:56.738Z,92.20
2023-02-11T16:54:23.850Z,92.40
2023-02-11T16:56:50.881Z,92.50
2023-02-11T16:59:17.747Z,92.40
2023-02-11T17:01:45.940Z,92.30
2023-02-11T17:04:29.842Z,92.20
2023-02-11T17:06:58.520Z,92.10
2023-02-11T17:09:30.352Z,92.20
2023-02-11T17:11:57.886Z,92.20
2023-02-11T17:14:24.693Z,92.20
2023-02-11T17:16:51.651Z,92.20
2023-02-11T17:19:21.354Z,92.30
2023-02-11T17:21:50.240Z,92.10
2023-02-11T17:24:17.109Z,91.90
2023-02-11T17:26:45.564Z,91.70
2023-02-11T17:29:16.290Z,91.60
2023-02-11T17:31:43.334Z,91.80
2023-02-11T17:34:10.339Z,91.90
2023-02-11T17:36:37.820Z,92.10
2023-02-11T17:39:08.138Z,92.30
2023-02-11T17:41:37.155Z,92.40
2023-02-11T17:44:04.440Z,92.30
2023-02-11T17:46:32.221Z,92.50
2023-02-11T17:48:59.598Z,92.60
2023-02-11T17:51:38.096Z,93.00
2023-02-11T17:54:08.674Z,93.50
2023-02-11T17:56:36.704Z,93.70
2023-02-11T17:59:04.868Z,94.30
2023-02-11T18:01:33.180Z,94.70
2023-02-11T18:04:00.076Z,95.30
2023-02-11T18:06:28.889Z,95.30
2023-02-11T18:08:58.013Z,95.80
2023-02-11T18:11:25.943Z,95.90
2023-02-11T18:13:54.487Z,96.30
2023-02-11T18:16:23.263Z,96.30
2023-02-11T18:18:50.369Z,96.20
2023-02-11T18:21:20.183Z,96.20
2023-02-11T18:23:47.781Z,96.10
2023-02-11T18:26:16.626Z,96.10
2023-02-11T18:28:45.846Z,96.20
2023-02-11T18:31:14.031Z,96.10
2023-02-11T18:33:42.289Z,96.20
2023-02-11T18:36:11.958Z,96.20
2023-02-11T18:38:39.121Z,96.20
2023-02-11T18:41:07.227Z,96.30
2023-02-11T18:43:34.940Z,96.40
2023-02-11T18:46:03.133Z,96.30
2023-02-11T18:48:29.945Z,96.30
2023-02-11T18:50:56.724Z,96.20
2023-02-11T18:53:24.937Z,96.20
2023-02-11T18:55:52.826Z,96.20
2023-02-11T18:58:21.359Z,96.30
2023-02-11T19:00:49.396Z,96.10
2023-02-11T19:03:16.514Z,96.50
2023-02-11T19:05:45.355Z,96.50
2023-02-11T19:08:12.581Z,96.80
2023-02-11T19:10:44.723Z,96.70
2023-02-11T19:13:12.265Z,96.70
2023-02-11T19:15:43.325Z,96.70
2023-02-11T19:18:11.072Z,96.70
2023-02-11T19:20:43.063Z,96.70
2023-02-11T19:23:10.829Z,96.90
2023-02-11T19:25:44.345Z,96.80
2023-02-11T19:28:11.293Z,96.80
2023-02-11T19:30:38.192Z,96.90
2023-02-11T19:33:05.202Z,96.90
2023-02-11T19:35:37.568Z,96.90
2023-02-11T19:38:05.563Z,96.80
2023-02-11T19:40:32.720Z,96.90
2023-02-11T19:42:59.703Z,96.80
2023-02-11T19:45:27.275Z,96.90
2023-02-11T19:47:57.722Z,96.80
2023-02-11T19:50:24.802Z,96.80
2023-02-11T19:52:51.632Z,96.70
2023-02-11T19:55:18.492Z,96.70
2023-02-11T19:57:45.335Z,96.70
2023-02-11T20:00:12.688Z,96.60
2023-02-11T20:02:40.365Z,96.50
2023-02-11T20:05:08.769Z,96.50
2023-02-11T20:07:35.599Z,96.30
2023-02-11T20:10:02.730Z,96.20
2023-02-11T20:12:29.788Z,96.10
2023-02-11T20:14:56.578Z,96.00
2023-02-11T20:17:23.347Z,96.00
2023-02-11T20:19:50.147Z,95.80
2023-02-11T20:22:17.011Z,95.80
2023-02-11T20:24:43.917Z,95.60
2023-02-11T20:27:11.648Z,95.60
2023-02-11T20:29:39.199Z,95.50
2023-02-11T20:32:07.317Z,95.30
2023-02-11T20:34:34.557Z,95.30
2023-02-11T20:37:02.590Z,95.20
2023-02-11T20:39:29.330Z,95.20
2023-02-11T20:41:57.512Z,95.20
2023-02-11T20:44:24.882Z,95.20
2023-02-11T20:46:53.946Z,95.10
2023-02-11T20:49:23.592Z,95.10
2023-02-11T20:51:52.449Z,95.00
2023-02-11T20:54:20.449Z,95.00
2023-02-11T20:56:48.608Z,95.10
2023-02-11T20:59:16.768Z,95.00
2023-02-11T21:01:49.571Z,95.00
2023-02-11T21:04:19.579Z,94.90
2023-02-11T21:06:52.281Z,94.90
2023-02-11T21:09:22.383Z,94.80
2023-02-11T21:11:51.670Z,94.80
2023-02-11T21:14:20.198Z,94.80
2023-02-11T21:16:48.085Z,94.80
2023-02-11T21:19:15.416Z,94.60
2023-02-11T21:21:42.828Z,94.60
2023-02-11T21:24:10.785Z,94.50
2023-02-11T21:26:38.395Z,94.50
2023-02-11T21:29:07.209Z,94.50
2023-02-11T21:31:34.994Z,94.50
2023-02-11T21:34:02.052Z,94.50
2023-02-11T21:36:29.766Z,94.50
2023-02-11T21:38:56.677Z,94.50
2023-02-11T21:41:24.805Z,94.40
2023-02-11T21:43:52.327Z,94.50
2023-02-11T21:46:19.930Z,94.40
2023-02-11T21:48:46.812Z,94.40
2023-02-11T21:51:17.124Z,94.20
2023-02-11T21:53:44.410Z,94.40
2023-02-11T21:56:17.057Z,94.30
2023-02-11T21:58:45.341Z,94.30
2023-02-11T22:01:18.067Z,94.20
2023-02-11T22:03:45.866Z,94.20
2023-02-11T22:06:15.957Z,94.20
2023-02-11T22:08:42.865Z,94.20
2023-02-11T22:11:11.630Z,94.30
2023-02-11T22:13:38.567Z,94.30
2023-02-11T22:16:08.180Z,94.50
2023-02-11T22:18:35.799Z,94.50
2023-02-11T22:21:04.330Z,94.60
2023-02-11T22:23:31.524Z,94.70
2023-02-11T22:25:59.172Z,94.80
2023-02-11T22:28:26.242Z,94.80
2023-02-11T22:30:55.389Z,94.90
2023-02-11T22:33:23.463Z,95.00
2023-02-11T22:35:57.659Z,95.00
2023-02-11T22:38:24.415Z,95.00
2023-02-11T22:40:51.181Z,95.00
2023-02-11T22:43:17.948Z,95.10
2023-02-11T22:45:44.709Z,95.10
2023-02-11T22:48:11.641Z,95.20
2023-02-11T22:50:38.410Z,95.20
2023-02-11T22:53:05.219Z,95.20
2023-02-11T22:55:31.967Z,95.30
2023-02-11T22:57:58.725Z,95.40
2023-02-11T23:00:30.329Z,95.30
2023-02-11T23:02:57.160Z,95.40
2023-02-11T23:05:24.021Z,95.40
2023-02-11T23:07:50.803Z,95.50
2023-02-11T23:10:17.788Z,95.50
2023-02-11T23:12:44.568Z,95.50
2023-02-11T23:15:11.486Z,95.60
2023-02-11T23:17:38.303Z,95.60
2023-02-11T23:20:05.573Z,95.60
2023-02-11T23:22:33.094Z,95.70
2023-02-11T23:24:59.933Z,95.80
2023-02-11T23:27:26.831Z,95.80
2023-02-11T23:29:56.648Z,95.90
2023-02-11T23:32:23.499Z,96.00
2023-02-11T23:34:50.300Z,96.10
2023-02-11T23:37:17.083Z,96.20
2023-02-11T23:39:43.796Z,96.20
2023-02-11T23:42:11.976Z,96.30
2023-02-11T23:44:38.930Z,96.30
2023-02-11T23:47:05.786Z,96.40
2023-02-11T23:49:32.564Z,96.50
2023-02-11T23:51:59.377Z,96.50
2023-02-11T23:54:26.168Z,96.60
2023-02-11T23:56:52.894Z,96.50
2023-02-11T23:59:19.634Z,96.60
